Time;durP1;ratioP1;P1;durP2;ratioP2;P2;SDS_P1;SDS_P2;PMS_P1;PMS_P2;Temp;Humidity;BMP_temperature;BMP_pressure;BME280_temperature;BME280_humidity;BME280_pressure;Samples;Min_cycle;Max_cycle;Signal;HPM_P1;HPM_P2
2022/03/09 00:01:34;;;;;;;6.30;3.65;;;;;;;;;;4950896;28;20082;-79
2022/03/09 00:04:00;;;;;;;3.83;3.47;;;;;;;;;;4933991;29;20070;-79
2022/03/09 00:06:27;;;;;;;3.88;3.22;;;;;;;;;;4953513;29;20418;-79
2022/03/09 00:08:52;;;;;;;6.07;3.97;;;;;;;;;;4952810;29;20054;-79
2022/03/09 00:11:19;;;;;;;4.43;3.40;;;;;;;;;;4951285;29;20382;-79
2022/03/09 00:13:45;;;;;;;3.67;3.28;;;;;;;;;;4950864;29;20071;-79
2022/03/09 00:16:11;;;;;;;4.78;3.13;;;;;;;;;;4953449;29;20697;-79
2022/03/09 00:18:37;;;;;;;4.97;3.47;;;;;;;;;;4934396;29;20039;-79
2022/03/09 00:21:03;;;;;;;4.35;3.75;;;;;;;;;;4931730;29;20083;-79
2022/03/09 00:23:29;;;;;;;3.58;3.28;;;;;;;;;;4945972;29;20047;-79
2022/03/09 00:25:55;;;;;;;5.75;4.13;;;;;;;;;;4944873;29;20058;-79
2022/03/09 00:28:21;;;;;;;3.88;3.08;;;;;;;;;;4935681;29;20051;-79
2022/03/09 00:30:47;;;;;;;4.40;3.58;;;;;;;;;;4950613;29;20035;-79
2022/03/09 00:33:13;;;;;;;6.20;4.05;;;;;;;;;;4925367;29;20047;-79
2022/03/09 00:35:39;;;;;;;5.57;3.70;;;;;;;;;;4960199;23;20132;-77
2022/03/09 00:38:06;;;;;;;4.40;3.67;;;;;;;;;;4969585;28;20072;-78
2022/03/09 00:40:32;;;;;;;4.47;3.95;;;;;;;;;;4978643;28;20105;-79
2022/03/09 00:42:58;;;;;;;5.70;4.10;;;;;;;;;;4973744;28;20042;-78
2022/03/09 00:45:24;;;;;;;4.70;3.67;;;;;;;;;;4993760;28;20038;-78
2022/03/09 00:47:50;;;;;;;3.83;3.50;;;;;;;;;;4991838;28;20038;-78
2022/03/09 00:50:16;;;;;;;5.93;4.00;;;;;;;;;;4987313;28;20489;-78
2022/03/09 00:52:42;;;;;;;4.43;3.80;;;;;;;;;;4990496;28;20074;-78
2022/03/09 00:55:08;;;;;;;5.32;4.32;;;;;;;;;;4997698;28;20065;-78
2022/03/09 00:57:35;;;;;;;7.10;4.22;;;;;;;;;;4991819;28;20038;-78
2022/03/09 01:00:01;;;;;;;4.85;4.15;;;;;;;;;;4992027;28;20041;-78
2022/03/09 01:02:27;;;;;;;5.88;4.65;;;;;;;;;;4991968;28;20371;-78
2022/03/09 01:04:53;;;;;;;7.70;6.95;;;;;;;;;;4996269;28;20046;-78
2022/03/09 01:07:18;;;;;;;13.25;11.90;;;;;;;;;;4990536;28;20043;-78
2022/03/09 01:09:44;;;;;;;16.38;14.65;;;;;;;;;;4989351;28;20456;-78
2022/03/09 01:12:10;;;;;;;15.95;14.35;;;;;;;;;;4975085;28;20126;-78
2022/03/09 01:14:36;;;;;;;16.42;14.93;;;;;;;;;;4973483;28;20042;-78
2022/03/09 01:17:02;;;;;;;12.65;11.35;;;;;;;;;;4973928;28;20559;-78
2022/03/09 01:19:28;;;;;;;12.77;11.15;;;;;;;;;;4974473;28;20065;-78
2022/03/09 01:21:54;;;;;;;12.40;10.43;;;;;;;;;;4957503;28;20050;-78
2022/03/09 01:24:20;;;;;;;12.13;10.93;;;;;;;;;;4972522;28;20502;-78
2022/03/09 01:26:46;;;;;;;11.82;10.65;;;;;;;;;;4990133;28;20034;-78
2022/03/09 01:29:12;;;;;;;11.27;10.02;;;;;;;;;;4995474;28;20550;-78
2022/03/09 01:31:38;;;;;;;9.77;8.80;;;;;;;;;;4956891;28;20113;-78
2022/03/09 01:34:04;;;;;;;10.07;8.95;;;;;;;;;;4972995;28;20503;-78
2022/03/09 01:36:30;;;;;;;9.88;7.15;;;;;;;;;;4990104;28;20050;-78
2022/03/09 01:38:56;;;;;;;8.55;7.10;;;;;;;;;;4994520;28;20567;-78
2022/03/09 01:41:22;;;;;;;7.43;6.40;;;;;;;;;;4989808;28;20057;-78
2022/03/09 01:44:05;;;;;;;6.57;5.15;;;;;;;;;;4987769;28;20090;-78
2022/03/09 01:46:31;;;;;;;6.47;5.30;;;;;;;;;;4988925;28;20441;-78
2022/03/09 01:48:57;;;;;;;5.53;4.93;;;;;;;;;;4990364;28;20129;-78
2022/03/09 01:51:23;;;;;;;7.38;5.28;;;;;;;;;;4973325;28;20046;-78
2022/03/09 01:53:49;;;;;;;6.60;5.00;;;;;;;;;;4972618;28;20041;-78
2022/03/09 01:56:16;;;;;;;5.85;4.90;;;;;;;;;;4972120;28;20089;-78
2022/03/09 01:58:42;;;;;;;7.03;4.70;;;;;;;;;;4971669;28;20050;-78
2022/03/09 02:01:08;;;;;;;8.23;5.38;;;;;;;;;;4972883;28;20047;-78
2022/03/09 02:03:36;;;;;;;6.70;4.53;;;;;;;;;;4975733;28;20165;-78
2022/03/09 02:06:02;;;;;;;6.60;5.28;;;;;;;;;;4991877;28;20381;-78
2022/03/09 02:11:13;;;;;;;7.82;5.45;;;;;;;;;;4990934;28;20050;-78
2022/03/09 02:13:39;;;;;;;9.07;5.30;;;;;;;;;;4957196;28;20038;-78
2022/03/09 02:16:06;;;;;;;8.55;5.75;;;;;;;;;;4997511;28;20419;-78
2022/03/09 02:18:32;;;;;;;6.88;5.38;;;;;;;;;;4990802;28;20038;-78
2022/03/09 02:21:02;;;;;;;8.60;5.00;;;;;;;;;;4972814;28;20504;-78
2022/03/09 02:23:28;;;;;;;5.65;4.65;;;;;;;;;;4972657;28;20046;-78
2022/03/09 02:25:54;;;;;;;6.40;4.95;;;;;;;;;;4973291;28;20092;-78
2022/03/09 02:28:20;;;;;;;7.75;5.93;;;;;;;;;;4976345;28;20056;-78
2022/03/09 02:30:46;;;;;;;6.72;5.50;;;;;;;;;;4976712;28;20540;-78
2022/03/09 02:33:12;;;;;;;7.55;5.38;;;;;;;;;;4977054;28;20034;-78
2022/03/09 02:35:38;;;;;;;8.52;5.15;;;;;;;;;;4960471;28;20054;-78
2022/03/09 02:38:04;;;;;;;6.45;5.43;;;;;;;;;;4976215;28;20050;-78
2022/03/09 02:40:30;;;;;;;9.05;5.32;;;;;;;;;;4994570;28;20038;-78
2022/03/09 02:42:56;;;;;;;7.82;5.45;;;;;;;;;;4994289;28;20092;-78
2022/03/09 02:45:22;;;;;;;7.63;5.50;;;;;;;;;;4979723;28;20038;-78
2022/03/09 02:47:48;;;;;;;7.32;5.45;;;;;;;;;;4977201;28;20054;-78
2022/03/09 02:50:15;;;;;;;6.20;5.60;;;;;;;;;;4990771;28;20357;-78
2022/03/09 02:52:42;;;;;;;8.75;5.70;;;;;;;;;;4983765;28;20050;-78
2022/03/09 02:55:09;;;;;;;7.40;5.72;;;;;;;;;;4976207;28;20535;-78
2022/03/09 02:57:35;;;;;;;8.40;5.80;;;;;;;;;;4992403;28;20035;-79
2022/03/09 03:00:01;;;;;;;7.75;6.00;;;;;;;;;;4960058;28;20048;-79
2022/03/09 03:02:27;;;;;;;8.43;5.57;;;;;;;;;;4976383;28;20038;-79
2022/03/09 03:04:53;;;;;;;6.72;5.90;;;;;;;;;;4967863;28;20050;-79
2022/03/09 03:07:19;;;;;;;10.13;6.05;;;;;;;;;;4973550;28;20042;-79
2022/03/09 03:09:45;;;;;;;6.95;5.70;;;;;;;;;;4976063;28;20388;-79
2022/03/09 03:12:11;;;;;;;8.05;5.72;;;;;;;;;;4975268;28;20046;-79
2022/03/09 03:14:37;;;;;;;8.18;6.20;;;;;;;;;;4976527;28;20046;-79
2022/03/09 03:17:03;;;;;;;6.30;5.15;;;;;;;;;;4992277;28;20042;-79
2022/03/09 03:19:29;;;;;;;7.25;5.88;;;;;;;;;;4976624;28;20038;-79
2022/03/09 03:21:55;;;;;;;7.22;5.78;;;;;;;;;;4966448;28;20125;-79
2022/03/09 03:24:21;;;;;;;7.32;5.78;;;;;;;;;;4975880;28;20503;-79
2022/03/09 03:26:47;;;;;;;8.38;5.78;;;;;;;;;;4976158;28;20065;-79
2022/03/09 03:29:13;;;;;;;7.18;5.75;;;;;;;;;;4975706;28;20042;-79
2022/03/09 03:31:39;;;;;;;6.18;5.45;;;;;;;;;;4978102;28;20043;-79
2022/03/09 03:34:05;;;;;;;8.48;6.15;;;;;;;;;;4991668;28;20088;-79
2022/03/09 03:36:31;;;;;;;8.30;6.47;;;;;;;;;;4993382;28;20416;-79
2022/03/09 03:38:57;;;;;;;9.13;6.07;;;;;;;;;;4975180;28;20080;-79
2022/03/09 03:41:23;;;;;;;7.60;5.93;;;;;;;;;;4974120;28;20082;-79
2022/03/09 03:43:49;;;;;;;8.52;5.93;;;;;;;;;;4976477;28;20046;-79
2022/03/09 03:46:14;;;;;;;8.38;6.43;;;;;;;;;;4976362;28;20038;-79
2022/03/09 03:48:40;;;;;;;8.20;6.20;;;;;;;;;;4992920;28;20153;-79
2022/03/09 03:51:06;;;;;;;7.72;6.13;;;;;;;;;;4963291;28;20045;-79
2022/03/09 03:53:32;;;;;;;7.53;6.35;;;;;;;;;;4992625;28;20038;-79
2022/03/09 03:55:58;;;;;;;7.13;6.03;;;;;;;;;;4976659;28;20458;-79
2022/03/09 03:58:24;;;;;;;7.75;6.63;;;;;;;;;;4958976;28;20073;-79
2022/03/09 04:00:50;;;;;;;7.47;5.82;;;;;;;;;;4975272;28;20101;-79
2022/03/09 04:03:16;;;;;;;7.82;6.32;;;;;;;;;;4975259;28;20050;-79
2022/03/09 04:05:42;;;;;;;9.63;7.20;;;;;;;;;;4975253;28;20046;-79
2022/03/09 04:08:08;;;;;;;9.23;6.88;;;;;;;;;;4979823;28;20552;-79
2022/03/09 04:10:34;;;;;;;9.32;6.60;;;;;;;;;;4975679;28;20058;-79
2022/03/09 04:13:03;;;;;;;8.48;6.28;;;;;;;;;;4975564;28;20046;-79
2022/03/09 04:15:30;;;;;;;9.95;6.50;;;;;;;;;;4971676;28;20397;-79
2022/03/09 04:17:55;;;;;;;9.25;6.88;;;;;;;;;;4961523;28;20046;-79
2022/03/09 04:20:21;;;;;;;8.88;6.88;;;;;;;;;;4984459;28;20046;-79
2022/03/09 04:22:47;;;;;;;8.27;6.43;;;;;;;;;;4993063;28;20062;-79
2022/03/09 04:25:13;;;;;;;8.35;6.13;;;;;;;;;;4975477;28;20054;-79
2022/03/09 04:27:39;;;;;;;8.60;6.82;;;;;;;;;;4982441;28;20037;-79
2022/03/09 04:30:06;;;;;;;8.95;7.40;;;;;;;;;;4977827;28;20041;-79
2022/03/09 04:32:32;;;;;;;8.60;6.50;;;;;;;;;;4986795;28;20078;-79
2022/03/09 04:34:59;;;;;;;12.75;7.13;;;;;;;;;;4993717;28;20735;-78
2022/03/09 04:37:25;;;;;;;7.07;5.65;;;;;;;;;;4987161;28;20035;-79
2022/03/09 04:39:51;;;;;;;9.70;6.68;;;;;;;;;;4964421;28;20042;-79
2022/03/09 04:42:17;;;;;;;9.13;6.40;;;;;;;;;;4977098;28;20046;-79
2022/03/09 04:44:43;;;;;;;9.65;6.72;;;;;;;;;;4992264;28;20488;-79
2022/03/09 04:47:08;;;;;;;12.13;6.65;;;;;;;;;;4983650;28;20161;-79
2022/03/09 04:49:34;;;;;;;9.02;6.78;;;;;;;;;;4974850;28;20104;-79
2022/03/09 04:52:00;;;;;;;8.05;6.13;;;;;;;;;;4975457;28;20121;-80
2022/03/09 04:54:26;;;;;;;10.40;7.05;;;;;;;;;;4976230;28;20054;-79
2022/03/09 04:56:52;;;;;;;9.82;7.20;;;;;;;;;;4974909;28;20077;-79
2022/03/09 04:59:18;;;;;;;8.82;6.57;;;;;;;;;;4974129;28;20080;-79
2022/03/09 05:01:44;;;;;;;7.80;6.65;;;;;;;;;;4985062;28;20042;-79
2022/03/09 05:04:10;;;;;;;9.88;7.30;;;;;;;;;;4992195;28;20042;-79
2022/03/09 05:06:36;;;;;;;9.55;6.55;;;;;;;;;;4994501;28;20435;-79
2022/03/09 05:09:02;;;;;;;13.75;6.68;;;;;;;;;;4991816;28;20038;-79
2022/03/09 05:11:28;;;;;;;9.07;7.30;;;;;;;;;;4976568;28;20304;-79
2022/03/09 05:13:54;;;;;;;11.52;7.70;;;;;;;;;;4958604;28;20811;-79
2022/03/09 05:16:22;;;;;;;9.27;7.32;;;;;;;;;;4978834;28;20424;-79
2022/03/09 05:18:49;;;;;;;8.63;7.25;;;;;;;;;;4959202;28;20038;-79
2022/03/09 05:21:15;;;;;;;8.77;6.90;;;;;;;;;;4974992;28;20050;-79
2022/03/09 05:23:41;;;;;;;9.60;6.40;;;;;;;;;;4971459;28;20498;-79
2022/03/09 05:26:07;;;;;;;9.80;6.65;;;;;;;;;;4993049;28;20045;-79
2022/03/09 05:28:33;;;;;;;11.15;7.32;;;;;;;;;;4975013;28;20526;-79
2022/03/09 05:30:59;;;;;;;8.02;6.90;;;;;;;;;;4959685;28;20041;-80
2022/03/09 05:33:25;;;;;;;8.85;7.07;;;;;;;;;;4969427;28;20918;-79
2022/03/09 05:35:51;;;;;;;12.60;7.35;;;;;;;;;;4974283;28;20047;-79
2022/03/09 05:38:16;;;;;;;8.45;6.72;;;;;;;;;;4991739;28;20053;-79
2022/03/09 05:40:43;;;;;;;9.13;7.43;;;;;;;;;;4974009;28;20480;-79
2022/03/09 05:43:09;;;;;;;9.30;7.10;;;;;;;;;;4973817;28;20093;-79
2022/03/09 05:45:35;;;;;;;9.13;7.22;;;;;;;;;;5001975;28;20038;-79
2022/03/09 05:48:01;;;;;;;10.30;7.07;;;;;;;;;;4977638;28;20057;-80
2022/03/09 05:50:27;;;;;;;12.68;7.22;;;;;;;;;;4982606;28;20043;-80
2022/03/09 05:52:53;;;;;;;9.60;7.82;;;;;;;;;;4986159;28;20154;-80
2022/03/09 05:55:18;;;;;;;10.02;7.55;;;;;;;;;;4992568;28;20068;-79
2022/03/09 05:57:44;;;;;;;9.88;7.10;;;;;;;;;;4986219;28;20491;-80
2022/03/09 06:00:11;;;;;;;11.10;8.38;;;;;;;;;;4962633;28;20045;-80
2022/03/09 06:02:37;;;;;;;8.65;7.25;;;;;;;;;;4979371;28;20038;-79
2022/03/09 06:05:03;;;;;;;12.13;7.47;;;;;;;;;;4980098;28;20407;-79
2022/03/09 06:07:30;;;;;;;10.70;7.90;;;;;;;;;;4986486;28;20042;-79
2022/03/09 06:09:56;;;;;;;8.20;6.78;;;;;;;;;;4994953;28;20053;-79
2022/03/09 06:12:22;;;;;;;8.90;7.50;;;;;;;;;;4995234;28;20042;-79
2022/03/09 06:14:48;;;;;;;12.18;7.97;;;;;;;;;;4993085;28;20038;-80
2022/03/09 06:17:14;;;;;;;10.35;7.68;;;;;;;;;;4996239;28;20092;-79
2022/03/09 06:19:40;;;;;;;9.35;7.15;;;;;;;;;;4972507;28;20046;-79
2022/03/09 06:22:06;;;;;;;10.23;7.78;;;;;;;;;;4977505;28;20116;-79
2022/03/09 06:24:32;;;;;;;9.57;7.63;;;;;;;;;;4962814;28;20117;-79
2022/03/09 06:26:59;;;;;;;10.13;7.78;;;;;;;;;;4979128;28;20069;-79
2022/03/09 06:29:25;;;;;;;9.68;8.00;;;;;;;;;;4978110;28;20408;-79
2022/03/09 06:31:51;;;;;;;12.30;8.43;;;;;;;;;;4975172;28;20452;-79
2022/03/09 06:34:17;;;;;;;28.83;18.85;;;;;;;;;;4967331;28;20042;-79
2022/03/09 06:36:44;;;;;;;61.47;34.50;;;;;;;;;;4980922;28;20100;-79
2022/03/09 06:39:14;;;;;;;40.72;26.27;;;;;;;;;;4985081;28;20042;-80
2022/03/09 06:41:41;;;;;;;19.17;13.20;;;;;;;;;;4994977;28;20056;-79
2022/03/09 06:44:07;;;;;;;11.20;7.65;;;;;;;;;;4990730;28;20053;-79
2022/03/09 06:46:33;;;;;;;9.88;7.72;;;;;;;;;;4993868;28;20262;-79
2022/03/09 06:48:59;;;;;;;8.55;6.70;;;;;;;;;;4961971;28;20050;-79
2022/03/09 06:51:25;;;;;;;9.30;7.20;;;;;;;;;;4988652;28;20044;-80
2022/03/09 06:53:51;;;;;;;7.93;6.90;;;;;;;;;;4960237;28;20041;-79
2022/03/09 06:56:18;;;;;;;10.95;7.90;;;;;;;;;;4976568;28;20034;-79
2022/03/09 06:58:45;;;;;;;10.48;7.13;;;;;;;;;;4974775;28;20046;-80
2022/03/09 07:01:11;;;;;;;10.93;7.43;;;;;;;;;;4960201;28;20042;-79
2022/03/09 07:03:37;;;;;;;8.38;6.70;;;;;;;;;;4973633;28;20085;-80
2022/03/09 07:06:03;;;;;;;8.93;7.07;;;;;;;;;;4994160;28;20565;-80
2022/03/09 07:08:29;;;;;;;8.98;7.00;;;;;;;;;;4960890;28;20050;-79
2022/03/09 07:10:55;;;;;;;10.32;6.57;;;;;;;;;;4965750;28;20046;-80
2022/03/09 07:13:21;;;;;;;9.00;7.18;;;;;;;;;;4993772;28;20444;-80
2022/03/09 07:15:47;;;;;;;8.45;7.60;;;;;;;;;;4975862;28;20154;-80
2022/03/09 07:18:13;;;;;;;9.65;6.88;;;;;;;;;;4976020;28;20046;-80
2022/03/09 07:20:40;;;;;;;8.27;6.88;;;;;;;;;;4976414;28;20407;-80
2022/03/09 07:23:06;;;;;;;9.68;6.55;;;;;;;;;;4956541;28;20050;-80
2022/03/09 07:25:33;;;;;;;10.35;7.40;;;;;;;;;;4974455;28;20073;-80
2022/03/09 07:27:59;;;;;;;8.98;6.65;;;;;;;;;;4976192;28;20121;-80
2022/03/09 07:30:25;;;;;;;6.78;6.05;;;;;;;;;;4959847;28;20093;-79
2022/03/09 07:32:51;;;;;;;8.38;6.15;;;;;;;;;;4956375;28;20030;-80
2022/03/09 07:35:17;;;;;;;9.98;7.00;;;;;;;;;;4976649;28;20504;-79
2022/03/09 07:37:43;;;;;;;8.38;6.53;;;;;;;;;;4975409;28;20058;-80
2022/03/09 07:40:09;;;;;;;7.03;6.32;;;;;;;;;;4976522;28;20038;-79
2022/03/09 07:42:35;;;;;;;7.60;6.80;;;;;;;;;;4976415;28;20077;-80
2022/03/09 07:45:03;;;;;;;8.75;7.15;;;;;;;;;;4976023;28;20057;-80
2022/03/09 07:47:29;;;;;;;8.13;6.50;;;;;;;;;;4975365;28;20109;-79
2022/03/09 07:49:55;;;;;;;9.52;6.90;;;;;;;;;;4976234;28;20046;-78
2022/03/09 07:52:21;;;;;;;9.73;7.05;;;;;;;;;;4973997;28;20034;-80
2022/03/09 07:54:47;;;;;;;9.30;6.47;;;;;;;;;;4975937;28;20034;-80
2022/03/09 07:57:13;;;;;;;8.00;6.88;;;;;;;;;;4963186;28;20086;-79
2022/03/09 07:59:39;;;;;;;7.72;6.60;;;;;;;;;;4951575;28;20441;-79
2022/03/09 08:02:07;;;;;;;9.93;6.47;;;;;;;;;;4959468;28;20133;-79
2022/03/09 08:04:33;;;;;;;7.93;6.35;;;;;;;;;;4967629;28;20051;-79
2022/03/09 08:06:59;;;;;;;7.32;6.55;;;;;;;;;;4971378;28;20060;-79
2022/03/09 08:09:25;;;;;;;7.55;6.40;;;;;;;;;;4972584;28;20030;-79
2022/03/09 08:11:51;;;;;;;7.53;5.93;;;;;;;;;;4977915;28;20085;-80
2022/03/09 08:14:17;;;;;;;8.60;6.50;;;;;;;;;;4974435;28;20876;-80
2022/03/09 08:16:43;;;;;;;6.82;6.10;;;;;;;;;;4975299;28;20114;-80
2022/03/09 08:19:10;;;;;;;8.43;6.05;;;;;;;;;;4973916;28;20050;-79
2022/03/09 08:21:36;;;;;;;7.25;6.50;;;;;;;;;;4969848;28;20046;-80
2022/03/09 08:24:02;;;;;;;9.23;6.50;;;;;;;;;;4958590;28;20050;-80
2022/03/09 08:26:28;;;;;;;8.73;6.28;;;;;;;;;;4957000;28;20038;-79
2022/03/09 08:28:54;;;;;;;7.25;6.10;;;;;;;;;;4975302;28;20141;-80
2022/03/09 08:31:20;;;;;;;7.65;6.55;;;;;;;;;;4972130;28;20043;-79
2022/03/09 08:33:47;;;;;;;9.13;6.68;;;;;;;;;;4970250;28;20039;-79
2022/03/09 08:36:13;;;;;;;8.77;6.53;;;;;;;;;;4963798;28;20093;-79
2022/03/09 08:38:39;;;;;;;9.68;6.50;;;;;;;;;;4967898;28;20047;-79
2022/03/09 08:41:05;;;;;;;7.47;6.20;;;;;;;;;;4970965;28;20495;-81
2022/03/09 08:43:31;;;;;;;7.78;6.57;;;;;;;;;;4977298;28;20046;-81
2022/03/09 08:45:57;;;;;;;6.93;6.22;;;;;;;;;;4974416;28;20084;-80
2022/03/09 08:48:26;;;;;;;8.93;6.85;;;;;;;;;;4972261;28;20106;-81
2022/03/09 08:50:52;;;;;;;7.03;6.35;;;;;;;;;;4957377;28;20102;-80
2022/03/09 08:53:18;;;;;;;7.80;6.40;;;;;;;;;;4975113;28;20038;-80
2022/03/09 08:55:44;;;;;;;7.70;6.63;;;;;;;;;;4974930;28;20041;-80
2022/03/09 08:58:10;;;;;;;8.63;5.88;;;;;;;;;;4973215;28;20121;-80
2022/03/09 09:00:36;;;;;;;7.35;6.65;;;;;;;;;;4959021;28;20116;-80
2022/03/09 09:03:02;;;;;;;7.00;6.30;;;;;;;;;;4958216;28;20404;-80
2022/03/09 09:05:28;;;;;;;7.85;6.45;;;;;;;;;;4957676;28;20046;-79
2022/03/09 09:07:54;;;;;;;7.57;6.40;;;;;;;;;;4973851;28;20508;-79
2022/03/09 09:10:21;;;;;;;8.23;6.00;;;;;;;;;;4969131;28;20759;-79
2022/03/09 09:12:47;;;;;;;8.63;6.88;;;;;;;;;;4958207;28;20034;-80
2022/03/09 09:15:13;;;;;;;8.18;6.05;;;;;;;;;;4974880;28;20373;-79
2022/03/09 09:17:39;;;;;;;8.07;6.10;;;;;;;;;;4958094;28;20056;-79
2022/03/09 09:20:06;;;;;;;8.65;6.43;;;;;;;;;;4974619;28;20108;-79
2022/03/09 09:22:32;;;;;;;8.95;6.03;;;;;;;;;;4971179;28;20054;-79
2022/03/09 09:25:00;;;;;;;7.85;5.80;;;;;;;;;;4957221;28;20085;-79
2022/03/09 09:27:26;;;;;;;7.72;5.72;;;;;;;;;;4964202;28;20054;-79
2022/03/09 09:29:52;;;;;;;7.80;6.25;;;;;;;;;;4955058;28;20044;-79
2022/03/09 09:32:18;;;;;;;8.98;6.10;;;;;;;;;;4967351;28;20038;-79
2022/03/09 09:34:45;;;;;;;8.68;6.53;;;;;;;;;;4974031;28;20050;-79
2022/03/09 09:37:11;;;;;;;7.63;6.07;;;;;;;;;;4958095;28;20058;-79
2022/03/09 09:39:37;;;;;;;6.57;5.88;;;;;;;;;;4973467;28;20439;-79
2022/03/09 09:42:03;;;;;;;7.13;6.38;;;;;;;;;;4958053;28;20104;-79
2022/03/09 09:44:30;;;;;;;8.63;6.18;;;;;;;;;;4974585;28;20042;-79
2022/03/09 09:46:56;;;;;;;8.68;6.32;;;;;;;;;;4974169;28;20078;-79
2022/03/09 09:49:25;;;;;;;7.57;6.82;;;;;;;;;;4973630;28;20078;-79
2022/03/09 09:51:52;;;;;;;6.53;5.93;;;;;;;;;;4970618;28;20074;-79
2022/03/09 09:54:18;;;;;;;9.23;6.40;;;;;;;;;;4972870;28;20039;-79
2022/03/09 09:56:45;;;;;;;9.93;6.60;;;;;;;;;;4972119;28;20038;-79
2022/03/09 09:59:11;;;;;;;8.10;6.45;;;;;;;;;;4956980;28;20046;-79
2022/03/09 10:01:39;;;;;;;9.23;6.78;;;;;;;;;;4969449;28;20053;-79
2022/03/09 10:04:06;;;;;;;7.55;6.53;;;;;;;;;;4948012;28;20058;-79
2022/03/09 10:06:33;;;;;;;8.63;6.45;;;;;;;;;;4967057;28;20058;-79
2022/03/09 10:09:05;;;;;;;7.95;6.72;;;;;;;;;;4973293;28;20082;-79
2022/03/09 10:11:45;;;;;;;8.38;6.40;;;;;;;;;;4955573;28;20065;-79
2022/03/09 10:14:11;;;;;;;8.95;6.40;;;;;;;;;;4972482;28;20030;-79
2022/03/09 10:16:38;;;;;;;8.80;6.50;;;;;;;;;;4948477;28;20049;-79
2022/03/09 10:19:04;;;;;;;9.25;6.68;;;;;;;;;;4968094;28;20504;-78
2022/03/09 10:21:35;;;;;;;7.53;6.50;;;;;;;;;;4973097;28;20100;-79
2022/03/09 10:24:06;;;;;;;8.45;6.40;;;;;;;;;;4970290;28;20043;-79
2022/03/09 10:26:35;;;;;;;8.15;6.75;;;;;;;;;;4970070;28;20412;-79
2022/03/09 10:29:05;;;;;;;7.97;6.47;;;;;;;;;;4969975;28;20062;-79
2022/03/09 10:31:31;;;;;;;7.03;6.05;;;;;;;;;;4971255;28;20469;-79
2022/03/09 10:34:08;;;;;;;7.85;6.25;;;;;;;;;;4950812;28;20052;-79
2022/03/09 10:36:34;;;;;;;8.00;6.95;;;;;;;;;;4962597;28;20194;-78
2022/03/09 10:39:10;;;;;;;7.28;6.43;;;;;;;;;;4964197;28;20050;-79
2022/03/09 10:41:36;;;;;;;8.23;6.72;;;;;;;;;;4966093;28;20078;-78
2022/03/09 10:44:02;;;;;;;8.27;6.15;;;;;;;;;;4973970;28;20096;-78
2022/03/09 10:46:40;;;;;;;8.93;6.15;;;;;;;;;;4974759;28;20042;-78
2022/03/09 10:49:07;;;;;;;7.22;6.38;;;;;;;;;;4974819;28;20047;-78
2022/03/09 10:51:38;;;;;;;7.53;6.72;;;;;;;;;;4975346;28;20091;-78
2022/03/09 10:54:04;;;;;;;8.65;7.15;;;;;;;;;;4966582;28;20520;-78
2022/03/09 10:56:31;;;;;;;9.18;7.30;;;;;;;;;;4959083;28;20030;-79
2022/03/09 10:58:57;;;;;;;8.80;6.85;;;;;;;;;;4975105;28;20741;-79
2022/03/09 11:01:25;;;;;;;9.45;6.45;;;;;;;;;;4976737;28;20046;-79
2022/03/09 11:03:51;;;;;;;8.27;7.18;;;;;;;;;;4977085;28;20093;-79
2022/03/09 11:06:17;;;;;;;7.47;6.63;;;;;;;;;;4965270;28;20101;-78
2022/03/09 11:08:43;;;;;;;11.63;6.68;;;;;;;;;;4964376;28;20046;-78
2022/03/09 11:11:09;;;;;;;9.73;7.22;;;;;;;;;;4962235;28;20051;-79
2022/03/09 11:13:36;;;;;;;9.07;6.80;;;;;;;;;;4968785;28;20042;-78
2022/03/09 11:16:03;;;;;;;10.68;7.30;;;;;;;;;;4976402;28;20053;-78
2022/03/09 11:18:30;;;;;;;9.30;7.32;;;;;;;;;;4972233;28;20036;-78
2022/03/09 11:20:57;;;;;;;7.97;7.18;;;;;;;;;;4976493;28;20097;-78
2022/03/09 11:23:24;;;;;;;9.50;6.53;;;;;;;;;;4960166;28;20073;-78
2022/03/09 11:25:53;;;;;;;8.68;7.15;;;;;;;;;;4960385;28;20072;-78
2022/03/09 11:28:23;;;;;;;8.30;7.40;;;;;;;;;;4972892;28;20045;-78
2022/03/09 11:30:59;;;;;;;9.05;6.85;;;;;;;;;;4949286;28;20053;-78
2022/03/09 11:33:43;;;;;;;9.48;7.35;;;;;;;;;;4976416;28;20034;-78
2022/03/09 11:36:22;;;;;;;7.07;6.38;;;;;;;;;;4966187;28;20050;-78
2022/03/09 11:38:52;;;;;;;7.78;6.75;;;;;;;;;;4966325;28;20058;-78
2022/03/09 11:41:26;;;;;;;11.77;7.50;;;;;;;;;;4975364;28;20050;-78
2022/03/09 11:43:52;;;;;;;8.43;7.10;;;;;;;;;;4959904;28;20167;-78
2022/03/09 11:46:19;;;;;;;7.38;6.63;;;;;;;;;;4959879;28;20125;-78
2022/03/09 11:48:58;;;;;;;8.10;7.05;;;;;;;;;;4975431;28;20049;-78
2022/03/09 11:51:26;;;;;;;8.18;7.20;;;;;;;;;;4946786;28;20487;-78
2022/03/09 11:53:56;;;;;;;7.88;7.07;;;;;;;;;;4975855;28;20050;-78
2022/03/09 11:56:28;;;;;;;8.15;7.32;;;;;;;;;;4965623;28;20042;-78
2022/03/09 11:58:53;;;;;;;;;;;;;;;;;;4958680;28;20064;-78
2022/03/09 12:01:19;;;;;;;7.68;6.63;;;;;;;;;;4974509;28;19918;-78
2022/03/09 12:03:45;;;;;;;7.90;7.10;;;;;;;;;;4975495;28;20046;-78
2022/03/09 12:06:30;;;;;;;9.32;7.68;;;;;;;;;;4975393;28;20081;-78
2022/03/09 12:08:56;;;;;;;8.93;7.95;;;;;;;;;;4958337;28;20147;-78
2022/03/09 12:11:24;;;;;;;8.77;7.00;;;;;;;;;;4969725;28;20042;-77
2022/03/09 12:13:50;;;;;;;7.65;6.90;;;;;;;;;;4968730;28;20400;-78
2022/03/09 12:16:20;;;;;;;8.00;6.85;;;;;;;;;;4973630;28;20037;-78
2022/03/09 12:19:03;;;;;;;7.63;6.85;;;;;;;;;;4958453;28;20145;-78
2022/03/09 12:21:36;;;;;;;8.40;7.50;;;;;;;;;;4945808;28;20053;-77
2022/03/09 12:24:05;;;;;;;8.23;7.25;;;;;;;;;;4954567;28;20053;-77
2022/03/09 12:26:44;;;;;;;8.65;7.28;;;;;;;;;;4974998;28;20073;-77
2022/03/09 12:29:25;;;;;;;8.45;7.45;;;;;;;;;;4974960;28;20409;-78
2022/03/09 12:32:01;;;;;;;8.32;7.32;;;;;;;;;;4973161;28;20090;-78
2022/03/09 12:34:28;;;;;;;7.95;6.80;;;;;;;;;;4963638;28;20736;-77
2022/03/09 12:36:54;;;;;;;6.85;5.97;;;;;;;;;;4969758;28;20110;-77
2022/03/09 12:39:21;;;;;;;8.45;7.18;;;;;;;;;;4968441;28;20042;-77
2022/03/09 12:41:51;;;;;;;10.80;7.65;;;;;;;;;;4951704;28;20046;-77
2022/03/09 12:44:18;;;;;;;8.27;6.88;;;;;;;;;;4966048;28;20039;-77
2022/03/09 12:46:45;;;;;;;9.60;6.93;;;;;;;;;;4953338;28;20057;-77
2022/03/09 12:49:11;;;;;;;7.47;6.60;;;;;;;;;;4970869;28;20054;-77
2022/03/09 12:51:38;;;;;;;8.23;7.32;;;;;;;;;;4973145;23;20411;-82
2022/03/09 12:54:05;;;;;;;7.40;6.57;;;;;;;;;;4943152;28;20054;-81
2022/03/09 12:56:31;;;;;;;7.28;6.50;;;;;;;;;;4956356;28;20094;-81
2022/03/09 12:59:11;;;;;;;9.65;6.90;;;;;;;;;;4952394;29;20158;-81
2022/03/09 13:01:37;;;;;;;7.25;6.35;;;;;;;;;;4968016;28;20046;-81
2022/03/09 13:04:04;;;;;;;6.85;6.15;;;;;;;;;;4972135;28;20051;-81
2022/03/09 13:06:32;;;;;;;7.65;6.85;;;;;;;;;;4965066;28;20114;-81
2022/03/09 13:08:58;;;;;;;7.65;6.82;;;;;;;;;;4971975;28;20130;-81
2022/03/09 13:11:28;;;;;;;9.30;7.20;;;;;;;;;;4971949;28;20051;-81
2022/03/09 13:13:54;;;;;;;8.00;7.20;;;;;;;;;;4969947;28;20066;-81
2022/03/09 13:16:26;;;;;;;8.38;6.88;;;;;;;;;;4955700;28;20050;-81
2022/03/09 13:18:56;;;;;;;8.07;7.10;;;;;;;;;;4971922;28;20082;-81
2022/03/09 13:21:26;;;;;;;8.43;7.07;;;;;;;;;;4956113;28;20054;-81
2022/03/09 13:23:52;;;;;;;11.48;7.20;;;;;;;;;;4970701;28;20050;-81
2022/03/09 13:26:18;;;;;;;7.38;6.57;;;;;;;;;;4971337;28;20042;-81
2022/03/09 13:28:48;;;;;;;8.65;7.70;;;;;;;;;;4971692;28;20097;-81
2022/03/09 13:31:16;;;;;;;8.90;7.60;;;;;;;;;;4971988;28;20097;-80
2022/03/09 13:33:42;;;;;;;8.32;7.32;;;;;;;;;;4971919;28;20096;-80
2022/03/09 13:36:13;;;;;;;8.00;7.20;;;;;;;;;;4955595;28;20050;-80
2022/03/09 13:38:41;;;;;;;9.13;7.63;;;;;;;;;;4971719;28;20473;-81
2022/03/09 13:41:08;;;;;;;8.55;7.00;;;;;;;;;;4969734;28;20047;-80
2022/03/09 13:43:37;;;;;;;8.13;7.32;;;;;;;;;;4949037;28;20688;-80
2022/03/09 13:46:16;;;;;;;8.38;7.10;;;;;;;;;;4972349;28;20063;-80
2022/03/09 13:48:43;;;;;;;8.77;6.72;;;;;;;;;;4971496;28;20384;-80
2022/03/09 13:51:09;;;;;;;9.35;7.35;;;;;;;;;;4971606;28;20193;-80
2022/03/09 13:53:36;;;;;;;9.73;7.38;;;;;;;;;;4958418;28;20053;-80
2022/03/09 13:56:04;;;;;;;7.80;7.00;;;;;;;;;;4971278;28;20046;-80
2022/03/09 13:58:38;;;;;;;8.40;7.22;;;;;;;;;;4970276;28;20079;-80
2022/03/09 14:01:06;;;;;;;7.95;7.15;;;;;;;;;;4971684;28;20506;-80
2022/03/09 14:03:39;;;;;;;7.63;6.82;;;;;;;;;;4955198;28;20057;-80
2022/03/09 14:06:11;;;;;;;8.27;7.32;;;;;;;;;;4970640;28;20086;-80
2022/03/09 14:08:37;;;;;;;9.43;7.63;;;;;;;;;;4970237;28;20054;-80
2022/03/09 14:11:15;;;;;;;9.23;7.55;;;;;;;;;;4970461;28;20126;-80
2022/03/09 14:13:56;;;;;;;9.38;6.72;;;;;;;;;;4956588;28;20051;-80
2022/03/09 14:16:22;;;;;;;8.32;7.00;;;;;;;;;;4969016;28;20043;-80
2022/03/09 14:18:48;;;;;;;7.90;7.10;;;;;;;;;;4970212;28;20491;-80
2022/03/09 14:21:14;;;;;;;9.43;7.93;;;;;;;;;;4970613;28;20057;-79
2022/03/09 14:23:40;;;;;;;8.43;7.13;;;;;;;;;;4956725;28;20054;-79
2022/03/09 14:26:06;;;;;;;7.45;6.57;;;;;;;;;;4974664;28;20050;-80
2022/03/09 14:28:32;;;;;;;9.18;7.57;;;;;;;;;;4974701;28;20117;-80
2022/03/09 14:30:58;;;;;;;8.70;7.45;;;;;;;;;;4957969;28;20513;-79
2022/03/09 14:33:24;;;;;;;12.63;7.93;;;;;;;;;;4973824;28;20046;-80
2022/03/09 14:35:50;;;;;;;8.68;7.68;;;;;;;;;;4972808;28;20551;-79
2022/03/09 14:38:16;;;;;;;8.85;7.95;;;;;;;;;;4965885;28;20046;-79
2022/03/09 14:40:43;;;;;;;9.35;7.28;;;;;;;;;;4974565;28;20082;-79
2022/03/09 14:43:09;;;;;;;8.98;8.07;;;;;;;;;;4974782;28;20492;-79